sensor_id;sensor_type;location;lat;lon;timestamp;pressure;altitude;pressure_sealevel;temperature;humidity
75136;BME280;63707;52.212;9.540;2023-07-08T00:00:13;100484.44;;;16.67;100.00
75136;BME280;63707;52.212;9.540;2023-07-08T00:02:40;100489.94;;;16.67;100.00
75136;BME280;63707;52.212;9.540;2023-07-08T00:05:07;100490.44;;;16.46;100.00
75136;BME280;63707;52.212;9.540;2023-07-08T00:07:33;100487.69;;;16.46;100.00
75136;BME280;63707;52.212;9.540;2023-07-08T00:10:00;100486.50;;;16.53;100.00
75136;BME280;63707;52.212;9.540;2023-07-08T00:12:25;100486.44;;;16.60;100.00
75136;BME280;63707;52.212;9.540;2023-07-08T00:14:51;100482.53;;;16.49;100.00
75136;BME280;63707;52.212;9.540;2023-07-08T00:17:16;100482.66;;;16.73;100.00
75136;BME280;63707;52.212;9.540;2023-07-08T00:19:42;100482.13;;;16.64;100.00
75136;BME280;63707;52.212;9.540;2023-07-08T00:22:11;100476.22;;;16.79;100.00
75136;BME280;63707;52.212;9.540;2023-07-08T00:24:37;100479.22;;;16.89;100.00
75136;BME280;63707;52.212;9.540;2023-07-08T00:27:04;100471.88;;;16.71;100.00
75136;BME280;63707;52.212;9.540;2023-07-08T00:29:30;100469.75;;;16.85;100.00
75136;BME280;63707;52.212;9.540;2023-07-08T00:31:55;100468.16;;;16.65;100.00
75136;BME280;63707;52.212;9.540;2023-07-08T00:34:21;100461.84;;;16.77;100.00
75136;BME280;63707;52.212;9.540;2023-07-08T00:36:46;100463.19;;;17.33;100.00
75136;BME280;63707;52.212;9.540;2023-07-08T00:39:13;100454.59;;;17.06;100.00
75136;BME280;63707;52.212;9.540;2023-07-08T00:41:40;100464.13;;;16.80;100.00
75136;BME280;63707;52.212;9.540;2023-07-08T00:44:10;100465.94;;;17.21;100.00
75136;BME280;63707;52.212;9.540;2023-07-08T00:46:48;100464.63;;;17.12;100.00
75136;BME280;63707;52.212;9.540;2023-07-08T00:49:25;100454.06;;;16.74;100.00
75136;BME280;63707;52.212;9.540;2023-07-08T00:51:51;100457.09;;;17.19;100.00
75136;BME280;63707;52.212;9.540;2023-07-08T00:54:18;100452.75;;;16.99;100.00
75136;BME280;63707;52.212;9.540;2023-07-08T00:56:47;100455.28;;;16.89;100.00
75136;BME280;63707;52.212;9.540;2023-07-08T00:59:18;100445.13;;;17.13;100.00
75136;BME280;63707;52.212;9.540;2023-07-08T01:01:46;100450.72;;;16.95;100.00
75136;BME280;63707;52.212;9.540;2023-07-08T01:04:14;100450.47;;;16.85;100.00
75136;BME280;63707;52.212;9.540;2023-07-08T01:06:44;100444.09;;;16.61;100.00
75136;BME280;63707;52.212;9.540;2023-07-08T01:09:13;100452.28;;;16.91;100.00
75136;BME280;63707;52.212;9.540;2023-07-08T01:11:40;100443.19;;;16.79;100.00
75136;BME280;63707;52.212;9.540;2023-07-08T01:14:07;100447.59;;;16.80;100.00
75136;BME280;63707;52.212;9.540;2023-07-08T01:16:37;100440.41;;;16.67;100.00
75136;BME280;63707;52.212;9.540;2023-07-08T01:19:04;100439.72;;;16.95;100.00
75136;BME280;63707;52.212;9.540;2023-07-08T01:21:34;100430.03;;;17.04;100.00
75136;BME280;63707;52.212;9.540;2023-07-08T01:24:03;100429.22;;;17.04;100.00
75136;BME280;63707;52.212;9.540;2023-07-08T01:26:31;100425.34;;;16.81;100.00
75136;BME280;63707;52.212;9.540;2023-07-08T01:28:59;100426.53;;;16.74;100.00
75136;BME280;63707;52.212;9.540;2023-07-08T01:31:25;100421.66;;;16.76;100.00
75136;BME280;63707;52.212;9.540;2023-07-08T01:33:51;100426.50;;;16.62;100.00
75136;BME280;63707;52.212;9.540;2023-07-08T01:36:17;100430.63;;;16.41;100.00
75136;BME280;63707;52.212;9.540;2023-07-08T01:38:44;100426.03;;;16.23;100.00
75136;BME280;63707;52.212;9.540;2023-07-08T01:41:13;100427.31;;;16.09;100.00
75136;BME280;63707;52.212;9.540;2023-07-08T01:43:39;100424.59;;;16.21;100.00
75136;BME280;63707;52.212;9.540;2023-07-08T01:46:12;100424.25;;;15.99;100.00
75136;BME280;63707;52.212;9.540;2023-07-08T01:48:41;100432.47;;;15.87;100.00
75136;BME280;63707;52.212;9.540;2023-07-08T01:51:11;100425.53;;;16.15;100.00
75136;BME280;63707;52.212;9.540;2023-07-08T01:53:38;100427.41;;;16.44;100.00
75136;BME280;63707;52.212;9.540;2023-07-08T01:56:06;100419.09;;;16.21;100.00
75136;BME280;63707;52.212;9.540;2023-07-08T01:58:34;100421.53;;;15.99;100.00
75136;BME280;63707;52.212;9.540;2023-07-08T02:01:00;100420.19;;;16.20;100.00
75136;BME280;63707;52.212;9.540;2023-07-08T02:03:26;100414.00;;;16.06;100.00
75136;BME280;63707;52.212;9.540;2023-07-08T02:05:52;100414.72;;;16.01;100.00
75136;BME280;63707;52.212;9.540;2023-07-08T02:08:18;100407.63;;;15.94;100.00
75136;BME280;63707;52.212;9.540;2023-07-08T02:10:48;100405.03;;;15.99;100.00
75136;BME280;63707;52.212;9.540;2023-07-08T02:13:14;100413.38;;;15.92;100.00
75136;BME280;63707;52.212;9.540;2023-07-08T02:15:41;100415.69;;;15.59;100.00
75136;BME280;63707;52.212;9.540;2023-07-08T02:18:06;100413.47;;;15.49;100.00
75136;BME280;63707;52.212;9.540;2023-07-08T02:20:32;100415.47;;;15.42;100.00
75136;BME280;63707;52.212;9.540;2023-07-08T02:22:57;100406.38;;;15.23;100.00
75136;BME280;63707;52.212;9.540;2023-07-08T02:25:23;100411.50;;;15.20;100.00
75136;BME280;63707;52.212;9.540;2023-07-08T02:27:48;100405.41;;;15.18;100.00
75136;BME280;63707;52.212;9.540;2023-07-08T02:30:14;100413.06;;;15.09;100.00
75136;BME280;63707;52.212;9.540;2023-07-08T02:32:41;100402.78;;;15.04;100.00
75136;BME280;63707;52.212;9.540;2023-07-08T02:35:08;100407.72;;;14.96;100.00
75136;BME280;63707;52.212;9.540;2023-07-08T02:37:33;100403.06;;;14.96;100.00
75136;BME280;63707;52.212;9.540;2023-07-08T02:39:59;100410.91;;;14.93;100.00
75136;BME280;63707;52.212;9.540;2023-07-08T02:42:25;100407.72;;;14.96;100.00
75136;BME280;63707;52.212;9.540;2023-07-08T02:44:51;100407.84;;;14.83;100.00
75136;BME280;63707;52.212;9.540;2023-07-08T02:47:16;100406.78;;;14.84;100.00
75136;BME280;63707;52.212;9.540;2023-07-08T02:49:43;100411.72;;;14.75;100.00
75136;BME280;63707;52.212;9.540;2023-07-08T02:52:09;100416.81;;;14.71;100.00
75136;BME280;63707;52.212;9.540;2023-07-08T02:54:35;100417.66;;;14.72;100.00
75136;BME280;63707;52.212;9.540;2023-07-08T02:57:00;100417.06;;;14.70;100.00
75136;BME280;63707;52.212;9.540;2023-07-08T02:59:26;100414.31;;;14.70;100.00
75136;BME280;63707;52.212;9.540;2023-07-08T03:01:53;100412.03;;;14.60;100.00
75136;BME280;63707;52.212;9.540;2023-07-08T03:04:19;100416.44;;;14.68;100.00
75136;BME280;63707;52.212;9.540;2023-07-08T03:06:50;100417.38;;;14.55;100.00
75136;BME280;63707;52.212;9.540;2023-07-08T03:09:15;100407.47;;;14.54;100.00
75136;BME280;63707;52.212;9.540;2023-07-08T03:11:42;100399.97;;;14.43;100.00
75136;BME280;63707;52.212;9.540;2023-07-08T03:14:08;100405.63;;;14.48;100.00
75136;BME280;63707;52.212;9.540;2023-07-08T03:16:33;100406.84;;;14.52;100.00
75136;BME280;63707;52.212;9.540;2023-07-08T03:18:59;100407.84;;;14.58;100.00
75136;BME280;63707;52.212;9.540;2023-07-08T03:21:25;100411.66;;;14.57;100.00
75136;BME280;63707;52.212;9.540;2023-07-08T03:23:51;100413.41;;;14.51;100.00
75136;BME280;63707;52.212;9.540;2023-07-08T03:26:19;100406.13;;;14.63;100.00
75136;BME280;63707;52.212;9.540;2023-07-08T03:28:46;100410.38;;;14.59;100.00
75136;BME280;63707;52.212;9.540;2023-07-08T03:31:12;100416.00;;;14.71;100.00
75136;BME280;63707;52.212;9.540;2023-07-08T03:33:37;100408.38;;;14.73;100.00
75136;BME280;63707;52.212;9.540;2023-07-08T03:36:04;100416.63;;;14.91;100.00
75136;BME280;63707;52.212;9.540;2023-07-08T03:38:29;100410.75;;;14.88;100.00
75136;BME280;63707;52.212;9.540;2023-07-08T03:40:56;100405.44;;;14.93;100.00
75136;BME280;63707;52.212;9.540;2023-07-08T03:43:22;100407.13;;;15.12;100.00
75136;BME280;63707;52.212;9.540;2023-07-08T03:45:47;100408.09;;;14.99;100.00
75136;BME280;63707;52.212;9.540;2023-07-08T03:48:13;100408.03;;;15.06;100.00
75136;BME280;63707;52.212;9.540;2023-07-08T03:50:39;100407.56;;;15.09;100.00
75136;BME280;63707;52.212;9.540;2023-07-08T03:53:04;100410.22;;;15.59;100.00
75136;BME280;63707;52.212;9.540;2023-07-08T03:55:30;100404.47;;;15.42;100.00
75136;BME280;63707;52.212;9.540;2023-07-08T03:57:57;100403.69;;;15.90;100.00
75136;BME280;63707;52.212;9.540;2023-07-08T04:00:22;100398.84;;;15.73;100.00
75136;BME280;63707;52.212;9.540;2023-07-08T04:02:48;100402.34;;;15.81;100.00
75136;BME280;63707;52.212;9.540;2023-07-08T04:05:14;100409.41;;;16.18;100.00
75136;BME280;63707;52.212;9.540;2023-07-08T04:07:40;100408.56;;;16.18;100.00
75136;BME280;63707;52.212;9.540;2023-07-08T04:10:07;100409.81;;;16.03;100.00
75136;BME280;63707;52.212;9.540;2023-07-08T04:12:32;100403.19;;;16.11;100.00
75136;BME280;63707;52.212;9.540;2023-07-08T04:14:59;100402.34;;;16.11;100.00
75136;BME280;63707;52.212;9.540;2023-07-08T04:17:25;100397.44;;;16.13;100.00
75136;BME280;63707;52.212;9.540;2023-07-08T04:19:50;100402.19;;;16.05;100.00
75136;BME280;63707;52.212;9.540;2023-07-08T04:22:16;100393.31;;;16.03;100.00
75136;BME280;63707;52.212;9.540;2023-07-08T04:24:42;100402.72;;;16.14;100.00
75136;BME280;63707;52.212;9.540;2023-07-08T04:27:12;100399.53;;;16.29;100.00
75136;BME280;63707;52.212;9.540;2023-07-08T04:29:38;100402.03;;;16.84;100.00
75136;BME280;63707;52.212;9.540;2023-07-08T04:32:05;100392.94;;;17.07;100.00
75136;BME280;63707;52.212;9.540;2023-07-08T04:34:31;100404.53;;;17.20;100.00
75136;BME280;63707;52.212;9.540;2023-07-08T04:36:56;100408.84;;;17.16;100.00
75136;BME280;63707;52.212;9.540;2023-07-08T04:39:22;100403.22;;;17.23;100.00
75136;BME280;63707;52.212;9.540;2023-07-08T04:41:48;100411.91;;;17.43;100.00
75136;BME280;63707;52.212;9.540;2023-07-08T04:44:13;100403.03;;;17.53;100.00
75136;BME280;63707;52.212;9.540;2023-07-08T04:46:41;100406.63;;;17.53;100.00
75136;BME280;63707;52.212;9.540;2023-07-08T04:49:09;100397.88;;;17.56;100.00
75136;BME280;63707;52.212;9.540;2023-07-08T04:51:35;100400.03;;;17.54;100.00
75136;BME280;63707;52.212;9.540;2023-07-08T04:54:00;100413.19;;;17.64;100.00
75136;BME280;63707;52.212;9.540;2023-07-08T04:56:35;100405.50;;;17.66;100.00
75136;BME280;63707;52.212;9.540;2023-07-08T04:59:02;100411.41;;;17.70;100.00
75136;BME280;63707;52.212;9.540;2023-07-08T05:01:27;100407.06;;;17.74;100.00
75136;BME280;63707;52.212;9.540;2023-07-08T05:03:53;100409.13;;;17.95;100.00
75136;BME280;63707;52.212;9.540;2023-07-08T05:06:20;100406.00;;;18.03;100.00
75136;BME280;63707;52.212;9.540;2023-07-08T05:08:45;100408.19;;;18.01;100.00
75136;BME280;63707;52.212;9.540;2023-07-08T05:11:11;100415.06;;;18.15;100.00
75136;BME280;63707;52.212;9.540;2023-07-08T05:13:36;100419.34;;;18.23;100.00
75136;BME280;63707;52.212;9.540;2023-07-08T05:16:02;100411.75;;;18.30;100.00
75136;BME280;63707;52.212;9.540;2023-07-08T05:18:27;100421.19;;;18.34;100.00
75136;BME280;63707;52.212;9.540;2023-07-08T05:20:53;100420.06;;;18.47;100.00
75136;BME280;63707;52.212;9.540;2023-07-08T05:23:21;100421.31;;;18.56;100.00
75136;BME280;63707;52.212;9.540;2023-07-08T05:25:47;100412.66;;;18.64;100.00
75136;BME280;63707;52.212;9.540;2023-07-08T05:28:12;100422.34;;;18.67;100.00
75136;BME280;63707;52.212;9.540;2023-07-08T05:30:40;100422.03;;;18.63;100.00
75136;BME280;63707;52.212;9.540;2023-07-08T05:33:05;100403.13;;;18.72;100.00
75136;BME280;63707;52.212;9.540;2023-07-08T05:35:31;100412.41;;;18.66;100.00
75136;BME280;63707;52.212;9.540;2023-07-08T05:37:56;100406.88;;;18.82;100.00
75136;BME280;63707;52.212;9.540;2023-07-08T05:40:23;100413.66;;;18.75;100.00
75136;BME280;63707;52.212;9.540;2023-07-08T05:42:49;100408.56;;;18.67;100.00
75136;BME280;63707;52.212;9.540;2023-07-08T05:45:14;100402.69;;;18.97;100.00
75136;BME280;63707;52.212;9.540;2023-07-08T05:47:40;100404.28;;;18.93;100.00
75136;BME280;63707;52.212;9.540;2023-07-08T05:50:06;100408.78;;;18.82;100.00
75136;BME280;63707;52.212;9.540;2023-07-08T05:52:32;100409.56;;;18.94;100.00
75136;BME280;63707;52.212;9.540;2023-07-08T05:54:57;100408.78;;;18.82;100.00
75136;BME280;63707;52.212;9.540;2023-07-08T05:57:24;100413.56;;;18.86;100.00
75136;BME280;63707;52.212;9.540;2023-07-08T05:59:50;100415.91;;;18.95;100.00
75136;BME280;63707;52.212;9.540;2023-07-08T06:02:16;100415.47;;;18.86;100.00
75136;BME280;63707;52.212;9.540;2023-07-08T06:04:42;100409.06;;;18.97;100.00
75136;BME280;63707;52.212;9.540;2023-07-08T06:07:08;100403.56;;;19.19;100.00
75136;BME280;63707;52.212;9.540;2023-07-08T06:09:33;100396.47;;;19.06;100.00
75136;BME280;63707;52.212;9.540;2023-07-08T06:11:59;100399.75;;;19.03;100.00
75136;BME280;63707;52.212;9.540;2023-07-08T06:14:26;100397.53;;;19.22;100.00
75136;BME280;63707;52.212;9.540;2023-07-08T06:16:52;100395.59;;;19.61;100.00
75136;BME280;63707;52.212;9.540;2023-07-08T06:19:17;100395.31;;;19.41;100.00
75136;BME280;63707;52.212;9.540;2023-07-08T06:21:43;100401.13;;;19.61;100.00
75136;BME280;63707;52.212;9.540;2023-07-08T06:24:09;100400.69;;;19.31;100.00
75136;BME280;63707;52.212;9.540;2023-07-08T06:26:34;100400.13;;;19.50;100.00
75136;BME280;63707;52.212;9.540;2023-07-08T06:29:00;100408.00;;;19.59;100.00
75136;BME280;63707;52.212;9.540;2023-07-08T06:31:27;100407.09;;;19.75;100.00
75136;BME280;63707;52.212;9.540;2023-07-08T06:33:53;100404.72;;;19.62;100.00
75136;BME280;63707;52.212;9.540;2023-07-08T06:36:18;100405.94;;;19.71;100.00
75136;BME280;63707;52.212;9.540;2023-07-08T06:38:44;100414.75;;;19.90;100.00
75136;BME280;63707;52.212;9.540;2023-07-08T06:41:10;100409.44;;;20.10;100.00
75136;BME280;63707;52.212;9.540;2023-07-08T06:43:35;100417.91;;;20.52;100.00
75136;BME280;63707;52.212;9.540;2023-07-08T06:46:01;100413.22;;;20.53;100.00
75136;BME280;63707;52.212;9.540;2023-07-08T06:48:28;100399.63;;;20.83;100.00
75136;BME280;63707;52.212;9.540;2023-07-08T06:50:54;100404.88;;;21.22;100.00
75136;BME280;63707;52.212;9.540;2023-07-08T06:53:19;100401.09;;;21.33;100.00
75136;BME280;63707;52.212;9.540;2023-07-08T06:55:45;100409.59;;;21.74;100.00
75136;BME280;63707;52.212;9.540;2023-07-08T06:58:10;100406.03;;;21.78;100.00
75136;BME280;63707;52.212;9.540;2023-07-08T07:00:36;100401.44;;;22.19;100.00
75136;BME280;63707;52.212;9.540;2023-07-08T07:03:02;100395.34;;;22.17;100.00
75136;BME280;63707;52.212;9.540;2023-07-08T07:05:29;100397.59;;;22.46;100.00
75136;BME280;63707;52.212;9.540;2023-07-08T07:07:54;100399.28;;;22.47;100.00
75136;BME280;63707;52.212;9.540;2023-07-08T07:10:21;100400.44;;;22.81;100.00
75136;BME280;63707;52.212;9.540;2023-07-08T07:12:47;100395.38;;;23.04;100.00
75136;BME280;63707;52.212;9.540;2023-07-08T07:15:12;100397.03;;;23.10;100.00
75136;BME280;63707;52.212;9.540;2023-07-08T07:17:38;100388.84;;;23.54;100.00
75136;BME280;63707;52.212;9.540;2023-07-08T07:20:04;100396.34;;;23.74;100.00
75136;BME280;63707;52.212;9.540;2023-07-08T07:22:32;100389.81;;;23.94;100.00
75136;BME280;63707;52.212;9.540;2023-07-08T07:24:58;100390.19;;;24.31;100.00
75136;BME280;63707;52.212;9.540;2023-07-08T07:27:24;100397.59;;;23.97;100.00
75136;BME280;63707;52.212;9.540;2023-07-08T07:29:50;100394.88;;;24.36;100.00
75136;BME280;63707;52.212;9.540;2023-07-08T07:32:17;100387.47;;;24.60;100.00
75136;BME280;63707;52.212;9.540;2023-07-08T07:34:46;100394.88;;;24.75;100.00
75136;BME280;63707;52.212;9.540;2023-07-08T07:37:13;100387.13;;;24.67;100.00
75136;BME280;63707;52.212;9.540;2023-07-08T07:39:40;100387.66;;;25.03;100.00
75136;BME280;63707;52.212;9.540;2023-07-08T07:42:06;100392.63;;;25.59;100.00
75136;BME280;63707;52.212;9.540;2023-07-08T07:44:32;100391.44;;;25.89;100.00
75136;BME280;63707;52.212;9.540;2023-07-08T07:46:58;100390.75;;;24.96;100.00
75136;BME280;63707;52.212;9.540;2023-07-08T07:49:23;100396.53;;;25.34;100.00
75136;BME280;63707;52.212;9.540;2023-07-08T07:51:49;100394.63;;;25.53;100.00
75136;BME280;63707;52.212;9.540;2023-07-08T07:54:15;100389.22;;;25.67;100.00
75136;BME280;63707;52.212;9.540;2023-07-08T07:56:42;100378.91;;;25.38;100.00
75136;BME280;63707;52.212;9.540;2023-07-08T07:59:08;100382.59;;;25.58;100.00
75136;BME280;63707;52.212;9.540;2023-07-08T08:01:33;100387.66;;;25.56;100.00
75136;BME280;63707;52.212;9.540;2023-07-08T08:03:59;100391.13;;;25.90;100.00
75136;BME280;63707;52.212;9.540;2023-07-08T08:06:24;100390.72;;;26.02;100.00
75136;BME280;63707;52.212;9.540;2023-07-08T08:08:50;100398.13;;;26.49;100.00
75136;BME280;63707;52.212;9.540;2023-07-08T08:11:16;100399.53;;;26.28;100.00
75136;BME280;63707;52.212;9.540;2023-07-08T08:13:43;100391.09;;;26.84;100.00
75136;BME280;63707;52.212;9.540;2023-07-08T08:16:08;100386.03;;;27.33;100.00
75136;BME280;63707;52.212;9.540;2023-07-08T08:18:34;100392.06;;;27.53;100.00
75136;BME280;63707;52.212;9.540;2023-07-08T08:20:59;100402.50;;;26.88;100.00
75136;BME280;63707;52.212;9.540;2023-07-08T08:23:25;100396.34;;;27.65;100.00
75136;BME280;63707;52.212;9.540;2023-07-08T08:25:51;100397.19;;;27.65;100.00
75136;BME280;63707;52.212;9.540;2023-07-08T08:28:16;100408.38;;;27.65;100.00
75136;BME280;63707;52.212;9.540;2023-07-08T08:30:46;100400.69;;;27.84;100.00
75136;BME280;63707;52.212;9.540;2023-07-08T08:33:12;100402.38;;;28.21;100.00
75136;BME280;63707;52.212;9.540;2023-07-08T08:35:37;100404.88;;;28.59;100.00
75136;BME280;63707;52.212;9.540;2023-07-08T08:38:03;100405.41;;;28.39;100.00
75136;BME280;63707;52.212;9.540;2023-07-08T08:40:29;100405.91;;;28.41;100.00
75136;BME280;63707;52.212;9.540;2023-07-08T08:43:00;100402.44;;;27.80;100.00
75136;BME280;63707;52.212;9.540;2023-07-08T08:45:28;100399.88;;;28.34;100.00
75136;BME280;63707;52.212;9.540;2023-07-08T08:47:58;100401.53;;;28.35;100.00
75136;BME280;63707;52.212;9.540;2023-07-08T08:50:30;100399.06;;;28.92;100.00
75136;BME280;63707;52.212;9.540;2023-07-08T08:52:57;100398.13;;;28.82;100.00
75136;BME280;63707;52.212;9.540;2023-07-08T08:55:24;100406.25;;;28.84;100.00
75136;BME280;63707;52.212;9.540;2023-07-08T08:57:57;100406.53;;;28.82;100.00
75136;BME280;63707;52.212;9.540;2023-07-08T09:00:41;100403.16;;;29.87;100.00
75136;BME280;63707;52.212;9.540;2023-07-08T09:03:11;100408.66;;;28.55;100.00
75136;BME280;63707;52.212;9.540;2023-07-08T09:05:40;100405.88;;;28.99;100.00
75136;BME280;63707;52.212;9.540;2023-07-08T09:08:12;100405.28;;;29.82;100.00
75136;BME280;63707;52.212;9.540;2023-07-08T09:10:45;100401.59;;;30.55;100.00
75136;BME280;63707;52.212;9.540;2023-07-08T09:13:16;100394.56;;;29.84;100.00
75136;BME280;63707;52.212;9.540;2023-07-08T09:15:42;100400.94;;;30.41;100.00
75136;BME280;63707;52.212;9.540;2023-07-08T09:18:17;100394.81;;;30.56;100.00
75136;BME280;63707;52.212;9.540;2023-07-08T09:20:44;100388.97;;;31.05;100.00
75136;BME280;63707;52.212;9.540;2023-07-08T09:23:16;100391.44;;;29.94;100.00
75136;BME280;63707;52.212;9.540;2023-07-08T09:25:49;100401.06;;;29.31;100.00
75136;BME280;63707;52.212;9.540;2023-07-08T09:28:16;100397.59;;;30.13;100.00
75136;BME280;63707;52.212;9.540;2023-07-08T09:30:42;100384.25;;;30.27;100.00
75136;BME280;63707;52.212;9.540;2023-07-08T09:33:12;100391.25;;;29.82;100.00
75136;BME280;63707;52.212;9.540;2023-07-08T09:35:40;100389.50;;;30.03;100.00
75136;BME280;63707;52.212;9.540;2023-07-08T09:38:07;100388.94;;;29.84;100.00
75136;BME280;63707;52.212;9.540;2023-07-08T09:40:33;100389.50;;;30.55;100.00
75136;BME280;63707;52.212;9.540;2023-07-08T09:43:11;100387.34;;;30.95;100.00
75136;BME280;63707;52.212;9.540;2023-07-08T09:45:42;100381.28;;;31.69;100.00
75136;BME280;63707;52.212;9.540;2023-07-08T09:48:17;100380.56;;;32.10;100.00
75136;BME280;63707;52.212;9.540;2023-07-08T09:50:44;100379.19;;;32.16;100.00
75136;BME280;63707;52.212;9.540;2023-07-08T09:53:12;100389.94;;;31.26;100.00
75136;BME280;63707;52.212;9.540;2023-07-08T09:55:38;100384.91;;;31.78;100.00
75136;BME280;63707;52.212;9.540;2023-07-08T09:58:03;100385.13;;;32.65;100.00
75136;BME280;63707;52.212;9.540;2023-07-08T10:00:32;100380.22;;;30.97;100.00
75136;BME280;63707;52.212;9.540;2023-07-08T10:03:03;100391.66;;;30.92;100.00
75136;BME280;63707;52.212;9.540;2023-07-08T10:05:33;100387.09;;;32.02;100.00
75136;BME280;63707;52.212;9.540;2023-07-08T10:08:02;100388.78;;;32.45;100.00
75136;BME280;63707;52.212;9.540;2023-07-08T10:10:30;100387.13;;;31.73;100.00
75136;BME280;63707;52.212;9.540;2023-07-08T10:12:59;100393.03;;;31.42;100.00
75136;BME280;63707;52.212;9.540;2023-07-08T10:15:31;100387.75;;;31.99;100.00
75136;BME280;63707;52.212;9.540;2023-07-08T10:17:59;100392.72;;;31.35;100.00
75136;BME280;63707;52.212;9.540;2023-07-08T10:20:34;100373.13;;;33.34;100.00
75136;BME280;63707;52.212;9.540;2023-07-08T10:23:08;100381.72;;;32.09;100.00
75136;BME280;63707;52.212;9.540;2023-07-08T10:25:46;100374.69;;;32.15;100.00
75136;BME280;63707;52.212;9.540;2023-07-08T10:28:24;100372.81;;;32.70;100.00
75136;BME280;63707;52.212;9.540;2023-07-08T10:30:58;100374.53;;;32.41;100.00
75136;BME280;63707;52.212;9.540;2023-07-08T10:33:39;100374.16;;;32.64;100.00
75136;BME280;63707;52.212;9.540;2023-07-08T10:36:19;100376.56;;;33.07;100.00
75136;BME280;63707;52.212;9.540;2023-07-08T10:38:54;100373.88;;;32.77;100.00
75136;BME280;63707;52.212;9.540;2023-07-08T10:41:30;100375.47;;;32.87;100.00
75136;BME280;63707;52.212;9.540;2023-07-08T10:44:05;100372.22;;;33.67;100.00
75136;BME280;63707;52.212;9.540;2023-07-08T10:46:38;100371.50;;;33.00;100.00
75136;BME280;63707;52.212;9.540;2023-07-08T10:49:38;100382.06;;;32.91;100.00
75136;BME280;63707;52.212;9.540;2023-07-08T10:52:18;100371.44;;;33.21;100.00
75136;BME280;63707;52.212;9.540;2023-07-08T10:55:01;100376.06;;;33.38;100.00
75136;BME280;63707;52.212;9.540;2023-07-08T10:57:47;100373.00;;;33.43;100.00
75136;BME280;63707;52.212;9.540;2023-07-08T11:00:24;100380.31;;;32.99;100.00
75136;BME280;63707;52.212;9.540;2023-07-08T11:03:06;100364.88;;;32.63;100.00
75136;BME280;63707;52.212;9.540;2023-07-08T11:05:42;100370.66;;;32.67;100.00
75136;BME280;63707;52.212;9.540;2023-07-08T11:08:14;100364.19;;;33.44;100.00
75136;BME280;63707;52.212;9.540;2023-07-08T11:10:48;100367.50;;;33.01;100.00
75136;BME280;63707;52.212;9.540;2023-07-08T11:13:18;100362.44;;;33.64;100.00
75136;BME280;63707;52.212;9.540;2023-07-08T11:15:54;100357.47;;;33.37;100.00
75136;BME280;63707;52.212;9.540;2023-07-08T11:18:28;100353.78;;;34.62;100.00
75136;BME280;63707;52.212;9.540;2023-07-08T11:20:56;100357.13;;;33.87;100.00
75136;BME280;63707;52.212;9.540;2023-07-08T11:23:31;100353.09;;;34.13;100.00
75136;BME280;63707;52.212;9.540;2023-07-08T11:26:07;100354.41;;;33.54;100.00
75136;BME280;63707;52.212;9.540;2023-07-08T11:28:35;100353.44;;;34.11;100.00
75136;BME280;63707;52.212;9.540;2023-07-08T11:31:01;100346.97;;;34.10;100.00
75136;BME280;63707;52.212;9.540;2023-07-08T11:33:28;100344.06;;;33.70;100.00
75136;BME280;63707;52.212;9.540;2023-07-08T11:35:56;100345.63;;;34.20;100.00
75136;BME280;63707;52.212;9.540;2023-07-08T11:38:26;100342.66;;;34.29;100.00
75136;BME280;63707;52.212;9.540;2023-07-08T11:40:55;100341.88;;;34.16;100.00
75136;BME280;63707;52.212;9.540;2023-07-08T11:43:23;100329.69;;;35.12;100.00
75136;BME280;63707;52.212;9.540;2023-07-08T11:45:50;100325.94;;;35.39;100.00
75136;BME280;63707;52.212;9.540;2023-07-08T11:48:22;100330.22;;;34.58;100.00
75136;BME280;63707;52.212;9.540;2023-07-08T11:50:49;100335.03;;;34.17;100.00
75136;BME280;63707;52.212;9.540;2023-07-08T11:53:34;100326.88;;;34.28;100.00
75136;BME280;63707;52.212;9.540;2023-07-08T11:56:02;100328.94;;;34.03;100.00
75136;BME280;63707;52.212;9.540;2023-07-08T11:58:31;100319.44;;;33.71;100.00
75136;BME280;63707;52.212;9.540;2023-07-08T12:00:58;100327.75;;;34.56;100.00
75136;BME280;63707;52.212;9.540;2023-07-08T12:03:38;100325.13;;;34.79;100.00
75136;BME280;63707;52.212;9.540;2023-07-08T12:06:47;100320.47;;;34.71;100.00
75136;BME280;63707;52.212;9.540;2023-07-08T12:09:15;100323.84;;;35.05;100.00
75136;BME280;63707;52.212;9.540;2023-07-08T12:11:55;100315.44;;;35.08;100.00
75136;BME280;63707;52.212;9.540;2023-07-08T12:14:22;100324.88;;;34.28;100.00
75136;BME280;63707;52.212;9.540;2023-07-08T12:16:48;100323.03;;;34.76;100.00
75136;BME280;63707;52.212;9.540;2023-07-08T12:19:18;100317.72;;;35.50;100.00
75136;BME280;63707;52.212;9.540;2023-07-08T12:21:47;100310.22;;;34.66;100.00
75136;BME280;63707;52.212;9.540;2023-07-08T12:24:14;100308.28;;;35.61;100.00
75136;BME280;63707;52.212;9.540;2023-07-08T12:26:40;100300.03;;;35.72;100.00
75136;BME280;63707;52.212;9.540;2023-07-08T12:29:05;100302.38;;;35.35;100.00
75136;BME280;63707;52.212;9.540;2023-07-08T12:31:32;100304.25;;;34.99;100.00
75136;BME280;63707;52.212;9.540;2023-07-08T12:33:58;100298.81;;;35.89;100.00
75136;BME280;63707;52.212;9.540;2023-07-08T12:36:27;100303.66;;;34.62;100.00
75136;BME280;63707;52.212;9.540;2023-07-08T12:38:55;100300.16;;;35.28;100.00
75136;BME280;63707;52.212;9.540;2023-07-08T12:41:23;100297.09;;;35.69;100.00
75136;BME280;63707;52.212;9.540;2023-07-08T12:43:50;100293.97;;;35.07;100.00